< < Back
Terminal Aerodrome Forecast


Current Version              Previous Versions:   1  2  3  4  5  6  7  8  9  

Terminal Aerodrome Forecast

398
FTUS42 KTAE 281100
TAFVLD
TAF
KVLD 281130Z 2812/2912 26007KT P6SM SCT030
     FM281800 24009KT P6SM VCTS BKN050CB
     FM290200 21003KT P6SM SCT050 BKN100=

Latest METAR

333
SAUS70 KWBC 291100
MTRVLD
METAR KVLD 291053Z 00000KT 10SM CLR 23/21 A2992 RMK AO2 SLP138
T02330206


USA.gov is the U.S. government's official web portal to all federal, state and local government web resources and services.